createdAt,value
2017-11-17T00:01:15.891Z,7.03
2017-11-17T00:03:44.933Z,18.20
2017-11-17T00:06:21.945Z,7.70
2017-11-17T00:08:50.993Z,9.10
2017-11-17T00:11:20.036Z,9.97
2017-11-17T00:13:49.052Z,6.73
2017-11-17T00:16:18.299Z,10.50
2017-11-17T00:18:47.341Z,11.57
2017-11-17T00:21:24.032Z,9.77
2017-11-17T00:23:53.092Z,8.43
2017-11-17T00:26:22.134Z,9.23
2017-11-17T00:28:51.149Z,10.37
2017-11-17T00:31:20.164Z,10.90
2017-11-17T00:33:49.207Z,9.60
2017-11-17T00:36:18.228Z,7.70
2017-11-17T00:38:54.583Z,9.73
2017-11-17T00:41:42.580Z,8.20
2017-11-17T00:44:14.958Z,12.20
2017-11-17T00:46:43.940Z,14.00
2017-11-17T00:49:12.929Z,9.10
2017-11-17T00:51:47.986Z,10.50
2017-11-17T00:54:18.747Z,8.20
2017-11-17T00:56:47.792Z,13.73
2017-11-17T00:59:17.093Z,10.43
2017-11-17T01:01:52.432Z,9.00
2017-11-17T01:04:21.451Z,12.83
2017-11-17T01:06:50.929Z,11.60
2017-11-17T01:09:19.956Z,7.33
2017-11-17T01:11:49.432Z,8.93
2017-11-17T01:14:18.489Z,12.77
2017-11-17T01:16:47.535Z,9.33
2017-11-17T01:19:16.622Z,13.57
2017-11-17T01:21:45.685Z,6.13
2017-11-17T01:24:29.868Z,9.27
2017-11-17T01:27:05.864Z,9.37
2017-11-17T01:29:35.000Z,12.77
2017-11-17T01:32:05.125Z,9.23
2017-11-17T01:34:34.313Z,12.00
2017-11-17T01:37:03.301Z,18.20
2017-11-17T01:39:32.461Z,9.60
2017-11-17T01:42:09.022Z,12.10
2017-11-17T01:44:38.285Z,8.10
2017-11-17T01:47:15.061Z,8.23
2017-11-17T01:49:44.231Z,11.30
2017-11-17T01:52:13.293Z,8.97
2017-11-17T01:54:42.364Z,8.47
2017-11-17T01:57:24.928Z,8.60
2017-11-17T01:59:54.178Z,7.80
2017-11-17T02:02:23.232Z,10.93
2017-11-17T02:04:52.489Z,6.90
2017-11-17T02:07:21.538Z,16.93
2017-11-17T02:09:51.389Z,9.33
2017-11-17T02:12:20.428Z,7.57
2017-11-17T02:14:50.801Z,9.70
2017-11-17T02:17:20.072Z,13.00
2017-11-17T02:19:49.100Z,8.70
2017-11-17T02:22:18.154Z,8.00
2017-11-17T02:24:47.258Z,11.53
2017-11-17T02:27:16.637Z,7.80
2017-11-17T02:29:52.304Z,13.07
2017-11-17T02:32:21.464Z,15.33
2017-11-17T05:08:52.409Z,52.03
2017-11-17T05:11:21.708Z,59.80
2017-11-17T05:13:50.676Z,31.43
2017-11-17T05:19:28.117Z,41.23
2017-11-17T05:21:57.131Z,44.83
2017-11-17T05:24:26.162Z,47.10
2017-11-17T05:26:55.213Z,50.93
2017-11-17T05:29:24.271Z,59.53
2017-11-17T05:31:53.346Z,123.27
2017-11-17T05:34:22.725Z,49.13
2017-11-17T05:36:51.720Z,83.07
2017-11-17T05:39:20.771Z,80.63
2017-11-17T05:41:49.765Z,109.43
2017-11-17T05:44:18.871Z,85.43
2017-11-17T05:46:53.943Z,121.23
2017-11-17T05:49:22.985Z,50.47
2017-11-17T05:51:52.049Z,30.40
2017-11-17T05:54:21.929Z,37.90
2017-11-17T05:56:51.006Z,57.60
2017-11-17T05:59:20.101Z,39.47
2017-11-17T06:01:49.114Z,59.80
2017-11-17T06:04:18.321Z,31.33
2017-11-17T06:06:47.370Z,66.70
2017-11-17T06:09:16.450Z,61.80
2017-11-17T06:11:45.450Z,57.60
2017-11-17T06:14:14.510Z,67.03
2017-11-17T06:16:43.792Z,73.00
2017-11-17T06:19:22.997Z,100.93
2017-11-17T06:21:52.930Z,125.63
2017-11-17T06:24:22.060Z,48.50
2017-11-17T06:26:51.088Z,53.80
2017-11-17T06:29:20.130Z,77.43
2017-11-17T06:31:49.159Z,50.77
2017-11-17T06:34:18.179Z,26.23
2017-11-17T06:36:47.232Z,29.43
2017-11-17T06:39:16.284Z,39.40
2017-11-17T06:41:46.976Z,39.43
2017-11-17T06:44:16.011Z,74.63
2017-11-17T06:46:45.093Z,45.47
2017-11-17T06:49:14.168Z,45.77
2017-11-17T06:51:43.766Z,70.23
2017-11-17T06:54:13.349Z,79.27
2017-11-17T06:56:42.405Z,50.17
2017-11-17T06:59:11.465Z,64.60
2017-11-17T07:01:40.500Z,101.50
2017-11-17T07:04:09.672Z,60.47
2017-11-17T07:06:38.735Z,102.10
2017-11-17T07:09:07.908Z,67.07
2017-11-17T07:11:36.960Z,53.43
2017-11-17T07:14:06.142Z,108.47
2017-11-17T07:16:35.163Z,144.17
2017-11-17T07:19:04.237Z,50.33
2017-11-17T07:21:36.765Z,48.17
2017-11-17T07:24:08.932Z,56.57
2017-11-17T07:26:40.997Z,42.73
2017-11-17T07:29:20.492Z,71.83
2017-11-17T07:31:56.716Z,102.27
2017-11-17T07:34:25.812Z,132.70
2017-11-17T07:36:54.866Z,77.83
2017-11-17T07:39:23.945Z,176.77
2017-11-17T07:42:03.813Z,106.10
2017-11-17T07:44:33.124Z,66.60
2017-11-17T07:47:02.486Z,89.47
2017-11-17T07:49:31.513Z,58.93
2017-11-17T07:52:02.123Z,71.63
2017-11-17T07:54:31.316Z,46.77
2017-11-17T07:57:01.162Z,40.60
2017-11-17T07:59:30.425Z,73.43
2017-11-17T08:01:59.479Z,44.80
2017-11-17T08:04:28.672Z,71.87
2017-11-17T08:06:58.001Z,109.13
2017-11-17T08:09:27.014Z,45.97
2017-11-17T08:11:56.058Z,51.03
2017-11-17T08:14:37.214Z,32.90
2017-11-17T08:17:19.484Z,67.93
2017-11-17T08:19:48.584Z,61.03
2017-11-17T08:22:17.668Z,64.60
2017-11-17T08:24:46.699Z,54.63
2017-11-17T08:27:15.755Z,42.87
2017-11-17T08:29:45.058Z,32.37
2017-11-17T08:32:14.285Z,69.93
2017-11-17T08:34:43.516Z,56.37
2017-11-17T08:37:12.559Z,53.70
2017-11-17T08:39:41.892Z,31.10
2017-11-17T08:42:10.974Z,17.00
2017-11-17T08:44:40.024Z,13.70
2017-11-17T08:47:09.053Z,13.73
2017-11-17T08:49:38.123Z,24.83
2017-11-17T08:52:10.311Z,23.03
2017-11-17T08:54:39.391Z,21.93
2017-11-17T08:57:09.475Z,20.03
2017-11-17T08:59:38.464Z,17.97
2017-11-17T09:02:07.498Z,19.00
2017-11-17T09:04:36.601Z,19.87
2017-11-17T09:07:05.674Z,17.90
2017-11-17T09:09:34.860Z,15.27
2017-11-17T09:12:10.033Z,16.83
2017-11-17T09:14:39.043Z,19.80
2017-11-17T09:17:08.100Z,13.93
2017-11-17T09:19:37.158Z,19.50
2017-11-17T09:22:06.203Z,17.40
2017-11-17T09:24:39.313Z,22.00
2017-11-17T09:27:08.569Z,15.30
2017-11-17T09:29:37.653Z,24.10
2017-11-17T09:32:07.043Z,20.77
2017-11-17T09:34:36.129Z,25.97
2017-11-17T09:37:05.141Z,34.27
2017-11-17T09:39:34.187Z,39.43
2017-11-17T09:42:03.276Z,30.63
2017-11-17T09:44:32.357Z,31.53
2017-11-17T09:47:01.417Z,26.53
2017-11-17T09:49:30.466Z,31.10
2017-11-17T09:51:59.529Z,34.63
2017-11-17T09:54:28.578Z,27.90
2017-11-17T09:57:05.869Z,32.77
2017-11-17T09:59:34.882Z,32.57
2017-11-17T10:02:03.941Z,37.37
2017-11-17T10:04:33.032Z,34.90
2017-11-17T10:07:10.744Z,22.30
2017-11-17T10:09:39.809Z,30.83
2017-11-17T10:12:08.880Z,22.43
2017-11-17T10:14:37.982Z,27.73
2017-11-17T10:17:07.069Z,29.43
2017-11-17T10:19:36.160Z,34.80
2017-11-17T10:22:17.821Z,24.50
2017-11-17T10:24:47.613Z,24.20
2017-11-17T10:27:16.704Z,30.67
2017-11-17T10:29:45.724Z,27.50
2017-11-17T10:32:15.029Z,38.83
2017-11-17T10:34:58.037Z,29.30
2017-11-17T10:37:27.308Z,34.77
2017-11-17T10:39:56.353Z,26.30
2017-11-17T10:42:25.367Z,28.43
2017-11-17T10:44:54.453Z,26.40
2017-11-17T10:47:23.491Z,26.30
2017-11-17T10:49:58.721Z,21.70
2017-11-17T10:52:27.818Z,22.63
2017-11-17T10:54:57.130Z,24.97
2017-11-17T10:57:26.223Z,25.17
2017-11-17T10:59:57.301Z,17.47
2017-11-17T11:02:26.541Z,19.53
2017-11-17T11:04:55.630Z,38.77
2017-11-17T11:07:24.726Z,27.67
2017-11-17T11:09:53.838Z,25.80
2017-11-17T11:12:22.943Z,29.50
2017-11-17T11:14:52.149Z,26.13
2017-11-17T11:17:21.251Z,31.63
2017-11-17T11:19:50.360Z,40.50
2017-11-17T11:22:26.921Z,33.90
2017-11-17T11:24:56.016Z,23.60
2017-11-17T11:27:25.111Z,26.90
2017-11-17T11:29:54.206Z,26.93
2017-11-17T11:32:26.405Z,29.73
2017-11-17T11:34:55.713Z,23.00
2017-11-17T11:37:24.786Z,33.23
2017-11-17T11:39:53.900Z,32.30
2017-11-17T11:42:22.965Z,36.53
2017-11-17T11:44:52.040Z,29.23
2017-11-17T11:47:21.152Z,27.23
2017-11-17T11:49:57.201Z,27.33
2017-11-17T11:52:32.369Z,27.90
2017-11-17T11:55:01.527Z,37.87
2017-11-17T11:57:30.605Z,26.43
2017-11-17T12:00:00.268Z,22.70
2017-11-17T12:02:30.177Z,24.43
2017-11-17T12:04:59.652Z,29.10
2017-11-17T12:07:34.761Z,27.77
2017-11-17T12:10:03.853Z,38.93
2017-11-17T12:12:33.778Z,28.97
2017-11-17T12:15:02.890Z,28.50
2017-11-17T12:17:32.056Z,22.10
2017-11-17T12:20:01.164Z,26.53
2017-11-17T12:22:30.256Z,23.53
2017-11-17T12:24:59.778Z,29.97
2017-11-17T12:27:28.869Z,28.73
2017-11-17T12:29:58.194Z,23.63
2017-11-17T12:32:27.286Z,23.57
2017-11-17T12:34:56.355Z,19.87
2017-11-17T12:37:37.243Z,19.03
2017-11-17T12:40:06.313Z,22.17
2017-11-17T12:42:35.296Z,27.00
2017-11-17T12:45:04.304Z,26.10
2017-11-17T12:47:44.408Z,30.27
2017-11-17T12:50:14.143Z,29.30
2017-11-17T12:52:43.342Z,26.33
2017-11-17T12:55:12.378Z,21.60
2017-11-17T12:57:41.418Z,23.43
2017-11-17T13:00:10.746Z,25.80
2017-11-17T13:02:39.821Z,39.27
2017-11-17T13:05:09.058Z,30.07
2017-11-17T13:07:38.145Z,29.30
2017-11-17T13:10:07.635Z,26.00
2017-11-17T13:12:36.994Z,28.60
2017-11-17T13:15:08.659Z,31.23
2017-11-17T13:17:38.075Z,34.33
2017-11-17T13:20:07.366Z,26.13
2017-11-17T13:22:49.605Z,27.77
2017-11-17T13:25:18.714Z,25.70
2017-11-17T13:27:47.965Z,42.10
2017-11-17T13:30:22.222Z,27.23
2017-11-17T13:32:59.673Z,32.77
2017-11-17T13:35:29.786Z,32.87
2017-11-17T13:37:59.514Z,36.33
2017-11-17T13:40:32.717Z,32.10
2017-11-17T13:43:01.811Z,36.70
2017-11-17T13:45:32.157Z,37.83
2017-11-17T13:48:01.257Z,29.40
2017-11-17T13:50:30.625Z,37.03
2017-11-17T13:53:06.795Z,29.10
2017-11-17T13:55:36.080Z,32.33
2017-11-17T14:00:44.273Z,33.87
2017-11-17T14:03:14.190Z,28.30
2017-11-17T14:05:44.276Z,27.40
2017-11-17T14:08:13.737Z,34.40
2017-11-17T14:10:43.176Z,27.80
2017-11-17T14:13:12.434Z,36.37
2017-11-17T14:15:41.521Z,32.70
2017-11-17T14:18:10.837Z,35.67
2017-11-17T14:20:41.412Z,31.87
2017-11-17T14:23:10.461Z,26.30
2017-11-17T14:25:39.503Z,32.73
2017-11-17T14:28:08.560Z,39.20
2017-11-17T14:30:37.869Z,32.53
2017-11-17T14:33:07.846Z,31.97
2017-11-17T14:35:37.938Z,30.67
2017-11-17T14:38:07.005Z,28.40
2017-11-17T14:40:36.039Z,31.10
2017-11-17T14:43:05.332Z,27.90
2017-11-17T14:45:35.246Z,42.73
2017-11-17T14:48:04.362Z,37.40
2017-11-17T14:50:34.534Z,32.47
2017-11-17T14:53:03.886Z,30.77
2017-11-17T14:55:33.231Z,28.40
2017-11-17T14:58:02.313Z,33.93
2017-11-17T15:00:33.125Z,29.70
2017-11-17T15:03:08.355Z,24.47
2017-11-17T15:08:11.161Z,34.77
2017-11-17T15:10:40.321Z,38.57
2017-11-17T15:13:09.392Z,28.17
2017-11-17T15:15:41.061Z,32.20
2017-11-17T15:18:11.354Z,31.73
2017-11-17T15:20:40.703Z,27.90
2017-11-17T15:23:10.366Z,28.93
2017-11-17T15:25:41.595Z,25.57
2017-11-17T15:28:10.699Z,28.10
2017-11-17T15:30:40.261Z,32.70
2017-11-17T15:33:09.366Z,29.03
2017-11-17T15:35:52.272Z,27.87
2017-11-17T15:38:21.369Z,27.97
2017-11-17T15:40:50.445Z,31.37
2017-11-17T15:43:19.524Z,31.00
2017-11-17T15:45:48.796Z,25.80
2017-11-17T15:48:17.920Z,68.53
2017-11-17T15:50:48.728Z,31.63
2017-11-17T15:53:18.177Z,42.33
2017-11-17T15:55:47.504Z,41.20
2017-11-17T15:58:22.121Z,36.13
2017-11-17T16:00:51.399Z,29.60
2017-11-17T16:03:24.832Z,40.40
2017-11-17T16:05:53.919Z,28.47
2017-11-17T16:08:22.978Z,35.40
2017-11-17T16:13:38.745Z,22.80
2017-11-17T16:16:09.717Z,50.67
2017-11-17T16:18:38.983Z,57.03
2017-11-17T16:21:08.302Z,50.33
2017-11-17T16:23:44.500Z,65.57
2017-11-17T16:26:13.845Z,39.83
2017-11-17T16:28:44.341Z,34.30
2017-11-17T16:31:13.740Z,36.53
2017-11-17T16:33:42.857Z,40.40
2017-11-17T16:36:12.939Z,69.67
2017-11-17T16:38:49.848Z,39.33
2017-11-17T16:41:19.679Z,63.70
2017-11-17T16:43:50.773Z,22.53
2017-11-17T16:46:20.333Z,34.20
2017-11-17T16:48:49.986Z,36.23
2017-11-17T16:51:19.281Z,27.23
2017-11-17T16:53:50.045Z,38.33
2017-11-17T16:56:20.230Z,36.30
2017-11-17T16:58:49.779Z,36.53
2017-11-17T17:01:20.612Z,26.07
2017-11-17T17:03:49.877Z,37.70
2017-11-17T17:06:19.136Z,32.93
2017-11-17T17:08:49.512Z,45.47
2017-11-17T17:11:32.933Z,26.20
2017-11-17T17:14:02.005Z,40.17
2017-11-17T17:16:32.014Z,25.90
2017-11-17T17:19:01.057Z,29.50
2017-11-17T17:21:30.369Z,36.67
2017-11-17T17:23:59.625Z,33.17
2017-11-17T17:26:28.850Z,42.50
2017-11-17T17:28:57.903Z,66.70
2017-11-17T17:31:31.121Z,42.17
2017-11-17T17:34:00.182Z,17.40
2017-11-17T17:36:35.383Z,28.87
2017-11-17T17:39:04.467Z,40.93
2017-11-17T17:41:33.525Z,57.27
2017-11-17T17:44:02.637Z,38.50
2017-11-17T17:46:31.973Z,61.43
2017-11-17T17:49:01.416Z,67.43
2017-11-17T17:51:30.723Z,43.80
2017-11-17T17:54:00.829Z,22.10
2017-11-17T17:56:30.483Z,23.33
2017-11-17T17:58:59.728Z,30.03
2017-11-17T18:01:28.834Z,22.03
2017-11-17T18:03:58.057Z,32.87
2017-11-17T18:06:27.210Z,20.40
2017-11-17T18:08:56.289Z,25.40
2017-11-17T18:11:25.523Z,25.70
2017-11-17T18:13:54.577Z,21.80
2017-11-17T18:16:23.858Z,23.40
2017-11-17T18:18:53.772Z,19.20
2017-11-17T18:21:22.828Z,17.83
2017-11-17T18:23:52.045Z,25.63
2017-11-17T18:26:27.533Z,19.93
2017-11-17T18:28:57.858Z,30.33
2017-11-17T18:31:27.292Z,28.73
2017-11-17T18:33:56.327Z,23.17
2017-11-17T18:36:31.391Z,27.43
2017-11-17T18:39:00.447Z,22.30
2017-11-17T18:41:30.038Z,24.87
2017-11-17T18:44:05.704Z,23.23
2017-11-17T18:46:40.843Z,21.67
2017-11-17T18:49:09.939Z,14.60
2017-11-17T18:51:39.254Z,17.67
2017-11-17T18:54:08.640Z,15.50
2017-11-17T18:56:37.839Z,22.37
2017-11-17T18:59:07.318Z,26.60
2017-11-17T19:01:42.397Z,30.10
2017-11-17T19:04:11.759Z,18.93
2017-11-17T19:06:40.918Z,22.93
2017-11-17T19:09:10.013Z,14.97
2017-11-17T19:11:39.198Z,19.93
2017-11-17T19:14:08.658Z,26.47
2017-11-17T19:16:37.737Z,25.27
2017-11-17T19:19:26.013Z,18.23
2017-11-17T19:22:01.634Z,23.73
2017-11-17T19:24:30.885Z,22.03
2017-11-17T19:26:59.946Z,19.30
2017-11-17T19:29:29.165Z,20.40
2017-11-17T19:31:58.429Z,20.57
2017-11-17T19:34:27.496Z,16.53
2017-11-17T19:36:57.676Z,20.53
2017-11-17T19:39:33.887Z,24.40
2017-11-17T19:42:03.035Z,18.93
2017-11-17T19:44:32.445Z,19.47
2017-11-17T19:47:02.804Z,26.67
2017-11-17T19:49:32.024Z,26.67
2017-11-17T19:52:01.147Z,21.13
2017-11-17T19:54:30.283Z,18.77
2017-11-17T19:57:05.027Z,28.57
2017-11-17T19:59:38.095Z,17.03
2017-11-17T20:02:07.239Z,17.50
2017-11-17T20:04:36.745Z,26.20
2017-11-17T20:07:07.534Z,23.37
2017-11-17T20:09:36.572Z,26.03
2017-11-17T20:12:06.724Z,22.03
2017-11-17T20:14:36.156Z,16.20
2017-11-17T20:17:05.405Z,31.00
2017-11-17T20:19:34.511Z,15.87
2017-11-17T20:22:03.556Z,14.97
2017-11-17T20:24:32.624Z,16.13
2017-11-17T20:27:01.669Z,18.20
2017-11-17T20:29:31.551Z,12.43
2017-11-17T20:32:00.572Z,16.60
2017-11-17T20:34:29.725Z,15.60
2017-11-17T20:36:59.017Z,13.43
2017-11-17T20:39:28.055Z,14.13
2017-11-17T20:41:57.497Z,13.43
2017-11-17T20:44:27.205Z,22.87
2017-11-17T20:47:03.413Z,12.87
2017-11-17T20:49:32.512Z,15.60
2017-11-17T20:52:01.594Z,21.83
2017-11-17T20:54:30.896Z,18.43
2017-11-17T20:57:00.908Z,13.40
2017-11-17T20:59:29.912Z,14.53
2017-11-17T21:01:59.101Z,30.20
2017-11-17T21:04:28.381Z,28.83
2017-11-17T21:06:57.544Z,22.43
2017-11-17T21:09:32.636Z,19.13
2017-11-17T21:12:01.697Z,16.07
2017-11-17T21:14:32.361Z,20.70
2017-11-17T21:17:02.387Z,17.03
2017-11-17T21:19:31.469Z,18.70
2017-11-17T21:22:00.717Z,22.23
2017-11-17T21:24:29.830Z,18.00
2017-11-17T21:26:58.920Z,15.50
2017-11-17T21:29:28.797Z,16.60
2017-11-17T21:31:57.890Z,21.10
2017-11-17T21:34:33.187Z,17.50
2017-11-17T21:37:09.828Z,13.77
2017-11-17T21:39:38.984Z,18.37
2017-11-17T21:42:08.406Z,17.27
2017-11-17T21:44:37.744Z,19.80
2017-11-17T21:47:07.269Z,24.33
2017-11-17T21:49:36.560Z,21.37
2017-11-17T21:52:05.669Z,20.83
2017-11-17T21:54:35.621Z,17.33
2017-11-17T21:57:04.693Z,21.73
2017-11-17T21:59:33.761Z,15.90
2017-11-17T22:02:03.309Z,22.50
2017-11-17T22:04:32.927Z,18.27
2017-11-17T22:07:01.977Z,20.20
2017-11-17T22:09:31.096Z,16.53
2017-11-17T22:12:00.158Z,22.33
2017-11-17T22:14:29.579Z,20.33
2017-11-17T22:17:06.299Z,19.83
2017-11-17T22:19:36.789Z,17.77
2017-11-17T22:22:11.950Z,18.00
2017-11-17T22:24:41.061Z,27.60
2017-11-17T22:27:10.116Z,15.97
2017-11-17T22:29:39.161Z,20.07
2017-11-17T22:32:08.732Z,19.80
2017-11-17T22:34:38.059Z,32.03
2017-11-17T22:37:07.318Z,21.37
2017-11-17T22:39:36.569Z,21.03
2017-11-17T22:42:06.228Z,19.93
2017-11-17T22:44:35.594Z,20.50
2017-11-17T22:47:04.649Z,23.10
2017-11-17T22:49:33.949Z,22.80
2017-11-17T22:52:03.047Z,21.57
2017-11-17T22:54:32.499Z,26.57
2017-11-17T22:57:01.560Z,21.97
2017-11-17T22:59:30.608Z,28.03
2017-11-17T23:01:59.642Z,19.97
2017-11-17T23:04:28.666Z,18.47
2017-11-17T23:07:01.073Z,23.17
2017-11-17T23:09:30.136Z,24.30
2017-11-17T23:11:59.498Z,24.43
2017-11-17T23:14:28.588Z,26.87
2017-11-17T23:16:57.668Z,26.87
2017-11-17T23:19:26.952Z,30.53
2017-11-17T23:21:56.044Z,19.37
2017-11-17T23:24:25.110Z,29.40
2017-11-17T23:26:54.168Z,20.43
2017-11-17T23:29:23.225Z,24.33
2017-11-17T23:31:52.261Z,20.93
2017-11-17T23:34:21.517Z,23.90
2017-11-17T23:36:50.558Z,25.20
2017-11-17T23:39:22.262Z,24.43
2017-11-17T23:41:51.401Z,22.33
2017-11-17T23:44:28.130Z,22.73
2017-11-17T23:46:57.226Z,17.60
2017-11-17T23:49:26.248Z,19.83
2017-11-17T23:52:02.958Z,25.67
2017-11-17T23:54:32.041Z,23.10
2017-11-17T23:57:01.103Z,21.43
2017-11-17T23:59:30.234Z,18.23
